Time;durP1;ratioP1;P1;durP2;ratioP2;P2;SDS_P1;SDS_P2;PMS_P1;PMS_P2;Temp;Humidity;BMP_temperature;BMP_pressure;BME280_temperature;BME280_humidity;BME280_pressure;Samples;Min_cycle;Max_cycle;Signal;HPM_P1;HPM_P2
2024/01/01 00:01:00;;;;;;;0.00;0.00;;;6.70;99.90;;;;;;5053287;28;20178;-69
2024/01/01 00:03:26;;;;;;;0.10;0.10;;;6.80;99.90;;;;;;5053363;28;20177;-69
2024/01/01 00:05:51;;;;;;;0.00;0.00;;;6.80;99.90;;;;;;5053349;28;20200;-69
2024/01/01 00:08:17;;;;;;;0.00;0.00;;;6.90;99.90;;;;;;5053300;28;20672;-67
2024/01/01 00:10:44;;;;;;;0.00;0.00;;;7.00;99.90;;;;;;5053108;28;20205;-69
2024/01/01 00:13:09;;;;;;;0.00;0.00;;;7.10;99.90;;;;;;5053228;28;20170;-68
2024/01/01 00:15:35;;;;;;;0.00;0.00;;;7.10;99.90;;;;;;5053185;28;20231;-69
2024/01/01 00:18:00;;;;;;;0.00;0.00;;;7.20;99.90;;;;;;5051739;28;20276;-68
2024/01/01 00:20:26;;;;;;;0.00;0.00;;;7.20;99.90;;;;;;5053052;28;20642;-68
2024/01/01 00:22:51;;;;;;;0.00;0.00;;;7.30;99.90;;;;;;5052813;28;20178;-67
2024/01/01 00:25:17;;;;;;;0.00;0.00;;;7.30;99.90;;;;;;5052920;28;20184;-68
2024/01/01 00:27:42;;;;;;;0.00;0.00;;;7.30;99.90;;;;;;5052927;28;20177;-67
2024/01/01 00:30:08;;;;;;;0.20;0.20;;;7.40;99.90;;;;;;5052955;28;20181;-69
2024/01/01 00:32:34;;;;;;;0.00;0.00;;;7.40;99.90;;;;;;5052835;28;20177;-68
2024/01/01 00:34:59;;;;;;;0.00;0.00;;;7.40;99.90;;;;;;5052617;28;20256;-68
2024/01/01 00:37:25;;;;;;;0.00;0.00;;;7.50;99.90;;;;;;5052879;28;20629;-68
2024/01/01 00:39:50;;;;;;;0.00;0.00;;;7.50;99.90;;;;;;5052472;28;20271;-68
2024/01/01 00:42:16;;;;;;;0.00;0.00;;;7.50;99.90;;;;;;5052709;28;20200;-68
2024/01/01 00:44:43;;;;;;;0.00;0.00;;;7.50;99.90;;;;;;5052652;28;20213;-67
2024/01/01 00:47:09;;;;;;;0.00;0.00;;;7.60;99.90;;;;;;5052609;28;20182;-68
2024/01/01 00:49:34;;;;;;;0.00;0.00;;;7.60;99.90;;;;;;5052475;28;20188;-68
2024/01/01 00:52:01;;;;;;;0.00;0.00;;;7.60;99.90;;;;;;5052311;28;20244;-69
2024/01/01 00:54:28;;;;;;;0.00;0.00;;;7.60;99.90;;;;;;5052310;28;20645;-69
2024/01/01 00:56:54;;;;;;;0.10;0.10;;;7.50;99.90;;;;;;5052337;28;20174;-68
2024/01/01 00:59:21;;;;;;;0.00;0.00;;;7.60;99.90;;;;;;5052312;28;20212;-68
2024/01/01 01:01:46;;;;;;;0.00;0.00;;;7.50;99.90;;;;;;5052345;28;20185;-68
2024/01/01 01:04:12;;;;;;;0.00;0.00;;;7.50;99.90;;;;;;5052375;28;20184;-70
2024/01/01 01:06:37;;;;;;;0.00;0.00;;;7.60;99.90;;;;;;5052150;28;20197;-67
2024/01/01 01:09:03;;;;;;;0.00;0.00;;;7.60;99.90;;;;;;5052212;28;20217;-68
2024/01/01 01:11:29;;;;;;;0.00;0.00;;;7.60;99.90;;;;;;5052062;28;20689;-68
2024/01/01 01:13:56;;;;;;;0.00;0.00;;;7.70;99.90;;;;;;5052097;28;20204;-68
2024/01/01 01:16:22;;;;;;;0.00;0.00;;;7.70;99.90;;;;;;5052174;28;20173;-68
2024/01/01 01:18:48;;;;;;;0.08;0.08;;;7.70;99.90;;;;;;5052037;28;20193;-68
2024/01/01 01:21:14;;;;;;;0.00;0.00;;;7.70;99.90;;;;;;5051999;28;20181;-66
2024/01/01 01:23:40;;;;;;;0.00;0.00;;;7.70;99.90;;;;;;5052411;28;20177;-66
2024/01/01 01:26:05;;;;;;;0.00;0.00;;;7.70;99.90;;;;;;5051930;28;20672;-69
2024/01/01 01:28:31;;;;;;;0.00;0.00;;;7.70;99.90;;;;;;5051842;28;20192;-68
2024/01/01 01:30:56;;;;;;;0.00;0.00;;;7.60;99.90;;;;;;5051594;28;20223;-67
2024/01/01 01:33:22;;;;;;;0.00;0.00;;;7.60;99.90;;;;;;5051885;28;20185;-69
2024/01/01 01:35:47;;;;;;;0.00;0.00;;;7.60;99.90;;;;;;5051652;28;20178;-68
2024/01/01 01:38:13;;;;;;;0.00;0.00;;;7.60;99.90;;;;;;5051881;28;20177;-68
2024/01/01 01:40:38;;;;;;;0.00;0.00;;;7.60;99.90;;;;;;5051416;28;20225;-67
2024/01/01 01:43:27;;;;;;;0.00;0.00;;;7.50;99.90;;;;;;5051473;28;20196;-67
2024/01/01 01:45:53;;;;;;;0.00;0.00;;;7.50;99.90;;;;;;5051604;28;20687;-68
2024/01/01 01:48:20;;;;;;;0.00;0.00;;;7.40;99.90;;;;;;5050841;28;20552;-67
2024/01/01 01:50:47;;;;;;;0.00;0.00;;;7.40;99.90;;;;;;5048872;28;20204;-67
2024/01/01 01:53:13;;;;;;;0.00;0.00;;;7.40;99.90;;;;;;5049463;28;20189;-68
2024/01/01 01:55:44;;;;;;;0.00;0.00;;;7.30;99.90;;;;;;5050875;28;20188;-67
2024/01/01 01:58:11;;;;;;;0.00;0.00;;;7.30;99.90;;;;;;5051025;28;20185;-68
2024/01/01 02:00:38;;;;;;;0.00;0.00;;;7.30;99.90;;;;;;5050896;28;20185;-67
2024/01/01 02:03:06;;;;;;;0.00;0.00;;;7.20;99.90;;;;;;5050959;28;20177;-67
2024/01/01 02:05:32;;;;;;;0.00;0.00;;;7.20;99.90;;;;;;5050991;28;20249;-67
2024/01/01 02:07:59;;;;;;;0.00;0.00;;;7.20;99.90;;;;;;5050458;28;20642;-67
2024/01/01 02:10:25;;;;;;;0.00;0.00;;;7.20;99.90;;;;;;5050910;28;20201;-68
2024/01/01 02:12:50;;;;;;;0.00;0.00;;;7.20;99.90;;;;;;5050916;28;20177;-67
2024/01/01 02:15:16;;;;;;;0.00;0.00;;;7.10;99.90;;;;;;5051216;28;20170;-68
2024/01/01 02:17:42;;;;;;;0.80;0.80;;;7.10;99.90;;;;;;5050900;28;20178;-67
2024/01/01 02:20:07;;;;;;;0.10;0.10;;;7.10;99.90;;;;;;5051009;28;20741;-67
2024/01/01 02:22:40;;;;;;;0.00;0.00;;;7.10;99.90;;;;;;5049465;28;20243;-68
2024/01/01 02:25:08;;;;;;;0.00;0.00;;;7.10;99.90;;;;;;5049376;28;20170;-68
2024/01/01 02:27:34;;;;;;;0.00;0.00;;;7.10;99.90;;;;;;5050467;28;20177;-67
2024/01/01 02:29:59;;;;;;;0.00;0.00;;;7.10;99.90;;;;;;5050729;28;20185;-67
2024/01/01 02:32:25;;;;;;;0.00;0.00;;;7.10;99.90;;;;;;5050959;28;20201;-68
2024/01/01 02:34:50;;;;;;;0.00;0.00;;;7.10;99.90;;;;;;5048988;28;20177;-68
2024/01/01 02:37:16;;;;;;;0.00;0.00;;;7.10;99.90;;;;;;5050436;28;20256;-68
2024/01/01 02:39:41;;;;;;;0.00;0.00;;;7.20;99.90;;;;;;5050405;28;20213;-68
2024/01/01 02:42:07;;;;;;;0.00;0.00;;;7.20;99.90;;;;;;5049539;28;20192;-68
2024/01/01 02:44:33;;;;;;;0.00;0.00;;;7.20;99.90;;;;;;5050569;28;20189;-68
2024/01/01 02:46:58;;;;;;;0.00;0.00;;;7.20;99.90;;;;;;5050367;28;20177;-68
2024/01/01 02:49:24;;;;;;;0.00;0.00;;;7.20;99.90;;;;;;5050390;28;20260;-68
2024/01/01 02:51:49;;;;;;;0.00;0.00;;;7.20;99.90;;;;;;5050210;28;20213;-68
2024/01/01 02:54:15;;;;;;;0.00;0.00;;;7.20;99.90;;;;;;5049940;28;20182;-68
2024/01/01 02:56:41;;;;;;;0.00;0.00;;;7.30;99.90;;;;;;5050219;28;20197;-68
2024/01/01 02:59:06;;;;;;;0.00;0.00;;;7.30;99.90;;;;;;5050322;28;20303;-67
2024/01/01 03:01:32;;;;;;;0.00;0.00;;;7.30;99.90;;;;;;5050134;28;20193;-68
2024/01/01 03:03:57;;;;;;;0.00;0.00;;;7.30;99.90;;;;;;5050065;28;20189;-68
2024/01/01 03:06:23;;;;;;;0.00;0.00;;;7.30;99.90;;;;;;5049823;28;20235;-69
2024/01/01 03:08:48;;;;;;;0.00;0.00;;;7.30;99.90;;;;;;5050296;28;20174;-69
2024/01/01 03:11:14;;;;;;;0.00;0.00;;;7.30;99.90;;;;;;5049045;28;20691;-68
2024/01/01 03:13:40;;;;;;;0.00;0.00;;;7.30;99.90;;;;;;5048861;28;20182;-68
2024/01/01 03:16:06;;;;;;;0.00;0.00;;;7.30;99.90;;;;;;5050377;28;20209;-69
2024/01/01 03:18:32;;;;;;;0.00;0.00;;;7.30;99.90;;;;;;5051239;28;20166;-68
2024/01/01 03:20:57;;;;;;;0.00;0.00;;;7.30;99.90;;;;;;5052029;28;20665;-68
2024/01/01 03:23:23;;;;;;;0.00;0.00;;;7.40;99.90;;;;;;5053309;28;20192;-68
2024/01/01 03:25:49;;;;;;;0.00;0.00;;;7.40;99.90;;;;;;5053066;28;20177;-68
2024/01/01 03:28:14;;;;;;;0.00;0.00;;;7.30;99.90;;;;;;5053567;28;20178;-68
2024/01/01 03:30:40;;;;;;;0.00;0.00;;;7.40;99.90;;;;;;5053039;28;20228;-68
2024/01/01 03:33:05;;;;;;;0.00;0.00;;;7.40;99.90;;;;;;5050660;28;20177;-68
2024/01/01 03:35:31;;;;;;;0.00;0.00;;;7.30;99.90;;;;;;5052978;28;20628;-67
2024/01/01 03:38:03;;;;;;;0.00;0.00;;;7.40;99.90;;;;;;5052852;28;20174;-68
2024/01/01 03:40:30;;;;;;;0.00;0.00;;;7.40;99.90;;;;;;5053103;28;20430;-69
2024/01/01 03:42:56;;;;;;;0.00;0.00;;;7.40;99.90;;;;;;5052782;28;20724;-67
2024/01/01 03:45:21;;;;;;;0.00;0.00;;;7.30;99.90;;;;;;5053039;28;20227;-68
2024/01/01 03:47:47;;;;;;;0.00;0.00;;;7.40;99.90;;;;;;5053001;28;20185;-66
2024/01/01 03:50:14;;;;;;;0.00;0.00;;;7.40;99.90;;;;;;5052801;28;20185;-67
2024/01/01 03:52:40;;;;;;;0.00;0.00;;;7.30;99.90;;;;;;5052187;28;20200;-67
2024/01/01 03:55:06;;;;;;;0.00;0.00;;;7.40;99.90;;;;;;5052498;28;20539;-67
2024/01/01 03:57:32;;;;;;;0.00;0.00;;;7.30;99.90;;;;;;5052666;28;20657;-68
2024/01/01 03:59:58;;;;;;;0.00;0.00;;;7.30;99.90;;;;;;5052630;28;20665;-68
2024/01/01 04:02:24;;;;;;;0.00;0.00;;;7.40;99.90;;;;;;5052393;28;20264;-68
2024/01/01 04:04:50;;;;;;;0.00;0.00;;;7.40;99.90;;;;;;5052710;28;20660;-68
2024/01/01 04:07:16;;;;;;;0.00;0.00;;;7.40;99.90;;;;;;5052246;28;20785;-68
2024/01/01 04:09:42;;;;;;;0.00;0.00;;;7.40;99.90;;;;;;5052337;28;20652;-68
2024/01/01 04:12:08;;;;;;;0.00;0.00;;;7.40;99.90;;;;;;5052330;28;20209;-67
2024/01/01 04:14:34;;;;;;;0.00;0.00;;;7.30;99.90;;;;;;5051189;28;20327;-68
2024/01/01 04:16:59;;;;;;;0.00;0.00;;;7.30;99.90;;;;;;5052410;28;20632;-68
2024/01/01 04:19:25;;;;;;;0.00;0.00;;;7.20;99.90;;;;;;5052293;28;20259;-67
2024/01/01 04:21:50;;;;;;;0.00;0.00;;;7.10;99.90;;;;;;5051000;28;20198;-67
2024/01/01 04:24:16;;;;;;;0.00;0.00;;;7.10;99.90;;;;;;5052335;28;20189;-67
2024/01/01 04:26:41;;;;;;;0.08;0.08;;;7.10;99.90;;;;;;5050036;28;20620;-68
2024/01/01 04:29:07;;;;;;;0.00;0.00;;;7.00;99.90;;;;;;5051587;28;20192;-68
2024/01/01 04:31:32;;;;;;;0.00;0.00;;;7.00;99.90;;;;;;5052032;28;20228;-68
2024/01/01 04:33:58;;;;;;;0.00;0.00;;;7.00;99.90;;;;;;5052085;28;20623;-68
2024/01/01 04:36:25;;;;;;;0.00;0.00;;;7.00;99.90;;;;;;5051423;28;20636;-68
2024/01/01 04:38:50;;;;;;;0.00;0.00;;;7.00;99.90;;;;;;5052337;28;20201;-69
2024/01/01 04:41:16;;;;;;;0.00;0.00;;;7.00;99.90;;;;;;5051718;28;20327;-68
2024/01/01 04:43:41;;;;;;;0.00;0.00;;;6.90;99.90;;;;;;5050740;28;20575;-69
2024/01/01 04:46:08;;;;;;;0.00;0.00;;;6.90;99.90;;;;;;5051047;28;20611;-68
2024/01/01 04:48:34;;;;;;;0.00;0.00;;;6.90;99.90;;;;;;5052138;28;20264;-68
2024/01/01 04:51:00;;;;;;;0.00;0.00;;;6.90;99.90;;;;;;5050462;28;20316;-68
2024/01/01 04:53:25;;;;;;;0.00;0.00;;;7.00;99.90;;;;;;5050298;28;20188;-68
2024/01/01 04:55:51;;;;;;;0.00;0.00;;;7.00;99.90;;;;;;5051054;28;20794;-67
2024/01/01 04:58:16;;;;;;;0.00;0.00;;;7.00;99.90;;;;;;5049936;28;20276;-68
2024/01/01 05:00:42;;;;;;;0.00;0.00;;;7.00;99.90;;;;;;5049286;28;20291;-67
2024/01/01 05:03:08;;;;;;;0.00;0.00;;;7.00;99.90;;;;;;5051189;28;20208;-68
2024/01/01 05:05:33;;;;;;;0.00;0.00;;;7.10;99.90;;;;;;5051039;28;20540;-69
2024/01/01 05:07:59;;;;;;;0.00;0.00;;;7.10;99.90;;;;;;5050946;28;20600;-67
2024/01/01 05:10:24;;;;;;;0.00;0.00;;;7.10;99.90;;;;;;5050957;28;20182;-68
2024/01/01 05:12:50;;;;;;;0.00;0.00;;;7.10;99.90;;;;;;5051040;28;20195;-68
2024/01/01 05:15:16;;;;;;;0.00;0.00;;;7.10;99.90;;;;;;5050972;28;20223;-68
2024/01/01 05:17:41;;;;;;;0.00;0.00;;;7.10;99.90;;;;;;5050932;28;20541;-67
2024/01/01 05:20:07;;;;;;;0.00;0.00;;;7.20;99.90;;;;;;5050262;28;20710;-68
2024/01/01 05:22:33;;;;;;;0.00;0.00;;;7.20;99.90;;;;;;5050527;28;20189;-67
2024/01/01 05:24:59;;;;;;;0.00;0.00;;;7.20;99.90;;;;;;5050903;28;20246;-67
2024/01/01 05:27:25;;;;;;;0.00;0.00;;;7.30;99.90;;;;;;5050809;28;20213;-67
2024/01/01 05:29:51;;;;;;;0.00;0.00;;;7.30;99.90;;;;;;5051211;28;20177;-66
2024/01/01 05:32:16;;;;;;;0.00;0.00;;;7.30;99.90;;;;;;5052011;28;20227;-67
2024/01/01 05:34:42;;;;;;;0.00;0.00;;;7.40;99.90;;;;;;5050566;28;20665;-67
2024/01/01 05:37:08;;;;;;;0.00;0.00;;;7.40;99.90;;;;;;5050242;28;20185;-67
2024/01/01 05:39:34;;;;;;;0.00;0.00;;;7.40;99.90;;;;;;5050579;28;20536;-66
2024/01/01 05:42:00;;;;;;;0.00;0.00;;;7.40;99.90;;;;;;5049436;28;20193;-68
2024/01/01 05:44:25;;;;;;;0.00;0.00;;;7.40;99.90;;;;;;5050776;28;20273;-67
2024/01/01 05:46:51;;;;;;;0.00;0.00;;;7.40;99.90;;;;;;5050691;28;20181;-66
2024/01/01 05:49:18;;;;;;;0.00;0.00;;;7.40;99.90;;;;;;5050259;28;20188;-66
2024/01/01 05:51:44;;;;;;;0.00;0.00;;;7.40;99.90;;;;;;5050321;28;20225;-67
2024/01/01 05:54:10;;;;;;;0.00;0.00;;;7.40;99.90;;;;;;5050631;28;20268;-66
2024/01/01 05:56:37;;;;;;;0.10;0.10;;;7.40;99.90;;;;;;5051289;28;20213;-67
2024/01/01 05:59:02;;;;;;;0.00;0.00;;;7.40;99.90;;;;;;5048736;28;20594;-68
2024/01/01 06:01:28;;;;;;;0.00;0.00;;;7.50;99.90;;;;;;5050614;28;20268;-68
2024/01/01 06:03:54;;;;;;;0.00;0.00;;;7.50;99.90;;;;;;5050529;28;20235;-68
2024/01/01 06:06:19;;;;;;;0.00;0.00;;;7.50;99.90;;;;;;5050566;28;20577;-68
2024/01/01 06:08:45;;;;;;;0.00;0.00;;;7.40;99.90;;;;;;5050540;28;20272;-68
2024/01/01 06:11:10;;;;;;;0.28;0.28;;;7.40;99.90;;;;;;5048660;28;20240;-68
2024/01/01 06:13:36;;;;;;;0.00;0.00;;;7.50;99.90;;;;;;5050859;28;20189;-69
2024/01/01 06:16:03;;;;;;;0.00;0.00;;;7.50;99.90;;;;;;5049999;28;20318;-67
2024/01/01 06:18:28;;;;;;;0.00;0.00;;;7.40;99.90;;;;;;5050508;28;20234;-68
2024/01/01 06:20:54;;;;;;;0.00;0.00;;;7.50;99.90;;;;;;5050203;28;20181;-68
2024/01/01 06:23:20;;;;;;;0.00;0.00;;;7.40;99.90;;;;;;5050117;28;20196;-68
2024/01/01 06:25:45;;;;;;;0.00;0.00;;;7.50;99.90;;;;;;5050434;28;20177;-68
2024/01/01 06:28:11;;;;;;;0.00;0.00;;;7.40;99.90;;;;;;5049165;28;20205;-67
2024/01/01 06:30:36;;;;;;;0.00;0.00;;;7.50;99.90;;;;;;5050319;28;20251;-68
2024/01/01 06:33:03;;;;;;;0.00;0.00;;;7.50;99.90;;;;;;5050001;28;20185;-67
2024/01/01 06:35:30;;;;;;;0.00;0.00;;;7.50;99.90;;;;;;5050369;28;20185;-67
2024/01/01 06:37:56;;;;;;;0.00;0.00;;;7.50;99.90;;;;;;5050051;28;20256;-67
2024/01/01 06:40:22;;;;;;;0.00;0.00;;;7.50;99.90;;;;;;5049925;28;20309;-67
2024/01/01 06:42:48;;;;;;;0.00;0.00;;;7.40;99.90;;;;;;5050235;28;20182;-68
2024/01/01 06:45:14;;;;;;;0.00;0.00;;;7.40;99.90;;;;;;5050146;28;20580;-67
2024/01/01 06:47:39;;;;;;;0.00;0.00;;;7.40;99.90;;;;;;5050083;28;20193;-67
2024/01/01 06:50:05;;;;;;;0.00;0.00;;;7.30;99.90;;;;;;5050228;28;20196;-67
2024/01/01 06:52:31;;;;;;;0.00;0.00;;;7.30;99.90;;;;;;5050898;28;20239;-68
2024/01/01 06:54:56;;;;;;;0.00;0.00;;;7.30;99.90;;;;;;5053998;28;20174;-68
2024/01/01 06:57:22;;;;;;;0.00;0.00;;;7.30;99.90;;;;;;5053535;28;20181;-68
2024/01/01 06:59:47;;;;;;;0.00;0.00;;;7.30;99.90;;;;;;5053992;28;20243;-67
2024/01/01 07:02:13;;;;;;;0.00;0.00;;;7.20;99.90;;;;;;5054024;28;20185;-68
2024/01/01 07:04:38;;;;;;;0.00;0.00;;;7.20;99.90;;;;;;5052844;28;20177;-68
2024/01/01 07:07:05;;;;;;;0.00;0.00;;;7.20;99.90;;;;;;5052405;28;20169;-68
2024/01/01 07:09:31;;;;;;;0.00;0.00;;;7.10;99.90;;;;;;5053928;28;20231;-68
2024/01/01 07:11:57;;;;;;;0.00;0.00;;;7.10;99.90;;;;;;5053916;28;20217;-68
2024/01/01 07:14:23;;;;;;;0.00;0.00;;;7.10;99.90;;;;;;5053688;28;20315;-68
2024/01/01 07:16:51;;;;;;;0.00;0.00;;;7.10;99.90;;;;;;5053741;28;20256;-67
2024/01/01 07:19:17;;;;;;;0.00;0.00;;;7.10;99.90;;;;;;5053300;28;20645;-68
2024/01/01 07:21:43;;;;;;;0.00;0.00;;;7.10;99.90;;;;;;5052990;28;20208;-68
2024/01/01 07:24:08;;;;;;;0.00;0.00;;;7.10;99.90;;;;;;5053536;28;20642;-68
2024/01/01 07:26:34;;;;;;;0.00;0.00;;;7.10;99.90;;;;;;5052471;28;20188;-68
2024/01/01 07:29:00;;;;;;;0.00;0.00;;;7.10;99.90;;;;;;5052180;28;20193;-68
2024/01/01 07:31:26;;;;;;;0.00;0.00;;;7.10;99.90;;;;;;5053553;28;20688;-68
2024/01/01 07:33:51;;;;;;;0.00;0.00;;;7.10;99.90;;;;;;5053642;28;20189;-68
2024/01/01 07:36:17;;;;;;;0.00;0.00;;;7.10;99.90;;;;;;5053660;28;20181;-68
2024/01/01 07:38:43;;;;;;;0.00;0.00;;;7.10;99.90;;;;;;5053218;28;20174;-68
2024/01/01 07:41:08;;;;;;;0.00;0.00;;;7.10;99.90;;;;;;5053124;28;20308;-68
2024/01/01 07:43:34;;;;;;;0.00;0.00;;;7.10;99.90;;;;;;5052922;28;20205;-68
2024/01/01 07:45:59;;;;;;;0.00;0.00;;;7.10;99.90;;;;;;5053319;28;20246;-67
2024/01/01 07:48:25;;;;;;;0.00;0.00;;;7.10;99.90;;;;;;5053475;28;20181;-67
2024/01/01 07:50:50;;;;;;;0.00;0.00;;;7.10;99.90;;;;;;5051752;28;20613;-67
2024/01/01 07:53:16;;;;;;;0.00;0.00;;;7.10;99.90;;;;;;5052224;28;20245;-67
2024/01/01 07:55:41;;;;;;;0.00;0.00;;;7.10;99.90;;;;;;5052374;28;20208;-68
2024/01/01 07:58:07;;;;;;;0.00;0.00;;;7.10;99.90;;;;;;5050985;28;20181;-68
2024/01/01 08:00:33;;;;;;;0.00;0.00;;;7.10;99.90;;;;;;5051111;28;20263;-69
2024/01/01 08:02:58;;;;;;;0.00;0.00;;;7.10;99.90;;;;;;5052705;28;20646;-68
2024/01/01 08:05:24;;;;;;;0.00;0.00;;;7.10;99.90;;;;;;5051987;28;20646;-68
2024/01/01 08:07:49;;;;;;;0.00;0.00;;;7.10;99.90;;;;;;5053901;28;20185;-68
2024/01/01 08:10:16;;;;;;;0.00;0.00;;;7.20;99.90;;;;;;5052751;28;20655;-68
2024/01/01 08:12:41;;;;;;;0.00;0.00;;;7.30;99.90;;;;;;5052172;28;20189;-65
2024/01/01 08:15:08;;;;;;;0.00;0.00;;;7.30;99.90;;;;;;5051073;28;20185;-66
2024/01/01 08:17:33;;;;;;;0.00;0.00;;;7.40;99.90;;;;;;5051250;28;20213;-66
2024/01/01 08:19:59;;;;;;;0.00;0.00;;;7.40;99.90;;;;;;5051637;28;20170;-64
2024/01/01 08:22:24;;;;;;;0.00;0.00;;;7.50;99.90;;;;;;5052328;28;20197;-64
2024/01/01 08:24:50;;;;;;;0.00;0.00;;;7.50;99.90;;;;;;5052398;28;20186;-62
2024/01/01 08:27:15;;;;;;;0.00;0.00;;;7.50;99.90;;;;;;5050754;28;20185;-65
2024/01/01 08:29:42;;;;;;;0.00;0.00;;;7.60;99.90;;;;;;5052569;28;20181;-66
2024/01/01 08:32:07;;;;;;;0.00;0.00;;;7.60;99.90;;;;;;5051759;28;20220;-63
2024/01/01 08:34:33;;;;;;;0.00;0.00;;;7.60;99.90;;;;;;5052508;28;20177;-63
2024/01/01 08:36:59;;;;;;;0.00;0.00;;;7.70;99.90;;;;;;5052398;28;20229;-71
2024/01/01 08:39:25;;;;;;;0.00;0.00;;;7.70;99.90;;;;;;5052464;28;20526;-69
2024/01/01 08:41:50;;;;;;;0.00;0.00;;;7.80;99.90;;;;;;5052041;28;20173;-67
2024/01/01 08:44:16;;;;;;;0.00;0.00;;;7.80;99.90;;;;;;5053164;28;20189;-67
2024/01/01 08:46:41;;;;;;;0.00;0.00;;;7.80;99.90;;;;;;5051817;28;20530;-66
2024/01/01 08:49:07;;;;;;;0.00;0.00;;;7.80;99.90;;;;;;5051963;28;20511;-69
2024/01/01 08:51:34;;;;;;;0.00;0.00;;;7.90;99.90;;;;;;5051875;28;20299;-67
2024/01/01 08:54:01;;;;;;;0.00;0.00;;;7.90;99.90;;;;;;5051957;28;20191;-66
2024/01/01 08:56:26;;;;;;;0.00;0.00;;;8.00;99.90;;;;;;5052008;28;20664;-65
2024/01/01 08:58:52;;;;;;;0.00;0.00;;;8.10;99.90;;;;;;5033974;28;20174;-65
2024/01/01 09:01:18;;;;;;;0.00;0.00;;;8.10;99.90;;;;;;5051928;28;20184;-67
2024/01/01 09:03:43;;;;;;;0.00;0.00;;;8.20;99.90;;;;;;5051895;28;20177;-64
2024/01/01 09:06:09;;;;;;;0.00;0.00;;;8.20;99.90;;;;;;5050306;28;20178;-66
2024/01/01 09:08:34;;;;;;;0.00;0.00;;;8.30;99.90;;;;;;5050251;28;20201;-65
2024/01/01 09:11:00;;;;;;;0.00;0.00;;;8.30;99.90;;;;;;5051763;28;20203;-66
2024/01/01 09:13:25;;;;;;;0.00;0.00;;;8.30;99.90;;;;;;5051814;28;20519;-65
2024/01/01 09:15:51;;;;;;;0.00;0.00;;;8.30;99.90;;;;;;5051844;28;20194;-68
2024/01/01 09:18:16;;;;;;;0.00;0.00;;;8.30;99.90;;;;;;5051105;28;20196;-69
2024/01/01 09:20:42;;;;;;;0.00;0.00;;;8.30;99.90;;;;;;5051944;28;20182;-69
2024/01/01 09:23:08;;;;;;;0.00;0.00;;;8.20;99.90;;;;;;5051407;28;20192;-69
2024/01/01 09:25:37;;;;;;;0.00;0.00;;;8.10;99.90;;;;;;5051835;28;20189;-69
2024/01/01 09:28:02;;;;;;;0.00;0.00;;;8.10;99.90;;;;;;5051803;28;20264;-69
2024/01/01 09:30:28;;;;;;;0.00;0.00;;;8.10;99.90;;;;;;5051692;28;20248;-69
2024/01/01 09:32:53;;;;;;;0.00;0.00;;;8.10;99.90;;;;;;5051578;28;20209;-70
2024/01/01 09:35:19;;;;;;;0.00;0.00;;;8.10;99.90;;;;;;5051717;28;20285;-71
2024/01/01 09:37:44;;;;;;;0.00;0.00;;;8.10;99.90;;;;;;5050980;28;20182;-69
2024/01/01 09:40:10;;;;;;;0.00;0.00;;;8.10;99.90;;;;;;5051348;28;20708;-76
2024/01/01 09:42:36;;;;;;;0.00;0.00;;;8.20;99.90;;;;;;5051625;28;20192;-70
2024/01/01 09:45:02;;;;;;;0.00;0.00;;;8.30;99.90;;;;;;5051470;28;20637;-68
2024/01/01 09:47:30;;;;;;;0.00;0.00;;;8.40;99.90;;;;;;5051563;28;20188;-70
2024/01/01 09:49:56;;;;;;;0.00;0.00;;;8.40;99.90;;;;;;5051261;28;20184;-68
2024/01/01 09:52:21;;;;;;;0.00;0.00;;;8.50;99.90;;;;;;5050022;28;20299;-69
2024/01/01 09:54:47;;;;;;;0.00;0.00;;;8.50;99.90;;;;;;5051396;28;20173;-69
2024/01/01 09:57:12;;;;;;;0.00;0.00;;;8.50;99.90;;;;;;5049819;28;20521;-69
2024/01/01 09:59:39;;;;;;;0.00;0.00;;;8.60;99.90;;;;;;5051225;28;20272;-68
2024/01/01 10:02:06;;;;;;;0.00;0.00;;;8.60;99.90;;;;;;5050328;28;20224;-68
2024/01/01 10:04:34;;;;;;;0.00;0.00;;;8.70;99.90;;;;;;5051133;28;20234;-69
2024/01/01 10:07:00;;;;;;;0.00;0.00;;;8.80;99.90;;;;;;5051183;28;20180;-69
2024/01/01 10:09:27;;;;;;;0.00;0.00;;;8.80;99.90;;;;;;5051112;28;20178;-69
2024/01/01 10:11:52;;;;;;;0.00;0.00;;;8.90;99.90;;;;;;5051107;28;20292;-68
2024/01/01 10:14:19;;;;;;;0.22;0.22;;;9.10;99.90;;;;;;5051327;28;20316;-69
2024/01/01 10:16:44;;;;;;;0.08;0.08;;;9.20;99.90;;;;;;5051172;28;20185;-68
2024/01/01 10:19:10;;;;;;;0.00;0.00;;;9.30;99.90;;;;;;5051083;28;20178;-67
2024/01/01 10:21:38;;;;;;;0.00;0.00;;;9.30;99.90;;;;;;5051143;28;20197;-68
2024/01/01 10:24:15;;;;;;;0.00;0.00;;;9.40;99.90;;;;;;5050857;28;20173;-68
2024/01/01 10:26:43;;;;;;;0.00;0.00;;;9.40;99.90;;;;;;5050910;28;20653;-68
2024/01/01 10:29:13;;;;;;;0.00;0.00;;;9.40;99.90;;;;;;5054700;28;20181;-69
2024/01/01 10:31:45;;;;;;;0.00;0.00;;;9.30;99.90;;;;;;5055152;28;20208;-69
2024/01/01 10:34:14;;;;;;;0.00;0.00;;;9.30;99.90;;;;;;5055069;28;20193;-69
2024/01/01 10:36:41;;;;;;;0.00;0.00;;;9.30;99.90;;;;;;5055097;28;20181;-70
2024/01/01 10:39:09;;;;;;;0.00;0.00;;;9.20;99.90;;;;;;5054745;28;20178;-67
2024/01/01 10:41:36;;;;;;;0.00;0.00;;;9.10;99.90;;;;;;5054478;28;20225;-67
2024/01/01 10:44:09;;;;;;;0.20;0.20;;;9.10;99.90;;;;;;5054762;28;20599;-67
2024/01/01 10:46:44;;;;;;;0.00;0.00;;;9.10;99.90;;;;;;5054806;28;20196;-67
2024/01/01 10:49:15;;;;;;;0.00;0.00;;;9.00;99.90;;;;;;5054743;28;20235;-67
2024/01/01 10:52:08;;;;;;;0.00;0.00;;;8.90;99.90;;;;;;5054391;28;20197;-67
2024/01/01 10:55:11;;;;;;;0.00;0.00;;;8.80;99.90;;;;;;5054562;28;20535;-67
2024/01/01 10:58:01;;;;;;;0.00;0.00;;;8.80;99.90;;;;;;5054723;28;20192;-68
2024/01/01 11:00:45;;;;;;;0.00;0.00;;;8.80;99.90;;;;;;5054007;28;20177;-68
2024/01/01 11:03:13;;;;;;;0.00;0.00;;;8.80;99.90;;;;;;5052902;28;20177;-68
2024/01/01 11:05:40;;;;;;;0.00;0.00;;;8.90;99.90;;;;;;5054277;28;20633;-69
2024/01/01 11:08:06;;;;;;;0.00;0.00;;;8.90;99.90;;;;;;5053776;28;20181;-68
2024/01/01 11:10:40;;;;;;;0.00;0.00;;;8.90;99.90;;;;;;5053889;28;20543;-68
2024/01/01 11:13:13;;;;;;;0.00;0.00;;;8.90;99.90;;;;;;5054334;28;20227;-69
2024/01/01 11:15:43;;;;;;;1.45;0.20;;;8.90;99.90;;;;;;5054382;28;20185;-69
2024/01/01 11:18:15;;;;;;;0.00;0.00;;;9.00;99.90;;;;;;5054331;28;20196;-68
2024/01/01 11:20:54;;;;;;;0.00;0.00;;;9.10;99.90;;;;;;5054280;28;20181;-69
2024/01/01 11:23:42;;;;;;;0.00;0.00;;;9.10;99.90;;;;;;5052779;28;20657;-68
2024/01/01 11:26:23;;;;;;;0.00;0.00;;;9.20;99.90;;;;;;5054256;28;20228;-69
2024/01/01 11:28:55;;;;;;;0.00;0.00;;;9.30;99.90;;;;;;5054053;28;20181;-67
2024/01/01 11:31:22;;;;;;;0.00;0.00;;;9.30;99.90;;;;;;5054249;28;20205;-67
2024/01/01 11:34:08;;;;;;;0.10;0.10;;;9.40;99.90;;;;;;5052709;28;20178;-67
2024/01/01 11:36:35;;;;;;;0.00;0.00;;;9.50;99.90;;;;;;5053977;28;20744;-68
2024/01/01 11:39:02;;;;;;;0.00;0.00;;;9.50;99.90;;;;;;5052493;28;20178;-68
2024/01/01 11:41:29;;;;;;;0.00;0.00;;;9.50;99.90;;;;;;5053771;28;20769;-68
2024/01/01 11:44:07;;;;;;;0.00;0.00;;;9.70;99.90;;;;;;5054821;28;20215;-68
2024/01/01 11:46:32;;;;;;;0.10;0.10;;;9.80;99.90;;;;;;5053052;28;20173;-69
2024/01/01 11:49:01;;;;;;;0.00;0.00;;;9.80;99.90;;;;;;5053384;28;20304;-69
2024/01/01 11:51:31;;;;;;;0.00;0.00;;;9.70;99.90;;;;;;5053326;28;20250;-68
2024/01/01 11:54:11;;;;;;;0.00;0.00;;;9.70;99.90;;;;;;5053347;28;20189;-68
2024/01/01 11:56:40;;;;;;;0.00;0.00;;;9.90;99.90;;;;;;5053379;28;20177;-67
2024/01/01 11:59:06;;;;;;;0.00;0.00;;;9.90;99.90;;;;;;5053526;28;20180;-68
2024/01/01 12:01:33;;;;;;;0.00;0.00;;;9.80;99.90;;;;;;5051742;28;20556;-68
2024/01/01 12:04:01;;;;;;;0.00;0.00;;;9.80;99.90;;;;;;5053139;28;20211;-68
2024/01/01 12:06:27;;;;;;;0.10;0.10;;;9.90;99.90;;;;;;5053587;28;20188;-68
2024/01/01 12:09:12;;;;;;;0.00;0.00;;;9.90;99.90;;;;;;5052887;28;20547;-67
2024/01/01 12:11:42;;;;;;;0.00;0.00;;;9.80;99.90;;;;;;5051389;28;20312;-68
2024/01/01 12:14:09;;;;;;;0.00;0.00;;;9.70;99.90;;;;;;5053425;28;20205;-68
2024/01/01 12:16:35;;;;;;;0.00;0.00;;;9.60;99.90;;;;;;5052744;28;20211;-67
2024/01/01 12:19:04;;;;;;;0.00;0.00;;;9.60;99.90;;;;;;5052917;28;20315;-68
2024/01/01 12:21:40;;;;;;;0.00;0.00;;;9.60;99.90;;;;;;5053147;28;20185;-66
2024/01/01 12:24:13;;;;;;;0.00;0.00;;;9.50;99.90;;;;;;5052803;28;20522;-67
2024/01/01 12:26:38;;;;;;;0.00;0.00;;;9.40;99.90;;;;;;5052958;28;20173;-67
2024/01/01 12:29:08;;;;;;;0.00;0.00;;;9.40;99.90;;;;;;5053039;28;20184;-67
2024/01/01 12:31:36;;;;;;;0.00;0.00;;;9.40;99.90;;;;;;5052789;28;20719;-67
2024/01/01 12:34:05;;;;;;;0.00;0.00;;;9.40;99.90;;;;;;5052810;28;20257;-68
2024/01/01 12:36:31;;;;;;;0.00;0.00;;;9.40;99.90;;;;;;5052854;28;20177;-66
2024/01/01 12:38:57;;;;;;;0.00;0.00;;;9.40;99.90;;;;;;5051356;28;20610;-68
2024/01/01 12:41:22;;;;;;;0.00;0.00;;;9.40;99.90;;;;;;5051362;28;20213;-67
2024/01/01 12:43:48;;;;;;;0.00;0.00;;;9.40;99.90;;;;;;5052803;28;20178;-67
2024/01/01 12:46:13;;;;;;;0.00;0.00;;;9.30;99.90;;;;;;5052698;28;20178;-67
2024/01/01 12:48:44;;;;;;;0.00;0.00;;;9.30;99.90;;;;;;5051014;28;20268;-67
2024/01/01 12:51:10;;;;;;;0.00;0.00;;;9.20;99.90;;;;;;5049673;28;20339;-67
2024/01/01 12:53:35;;;;;;;0.00;0.00;;;9.10;99.90;;;;;;5050631;28;20634;-67
2024/01/01 12:56:01;;;;;;;0.05;0.05;;;9.00;99.90;;;;;;5051978;28;20176;-66